createdAt,value
2019-03-01T00:00:34.085Z,51.30
2019-03-01T00:01:34.104Z,52.00
2019-03-01T00:02:34.112Z,50.40
2019-03-01T00:03:34.124Z,51.60
2019-03-01T00:04:34.185Z,57.30
2019-03-01T00:05:34.151Z,59.20
2019-03-01T00:06:34.164Z,51.20
2019-03-01T00:07:34.175Z,55.60
2019-03-01T00:08:34.189Z,51.80
2019-03-01T00:09:34.202Z,55.00
2019-03-01T00:10:34.218Z,53.50
2019-03-01T00:11:34.229Z,55.90
2019-03-01T00:12:34.244Z,52.20
2019-03-01T00:13:34.255Z,57.60
2019-03-01T00:14:34.267Z,55.90
2019-03-01T00:15:34.280Z,54.70
2019-03-01T00:16:34.293Z,60.20
2019-03-01T00:17:34.305Z,50.50
2019-03-01T00:18:34.319Z,59.40
2019-03-01T00:19:34.331Z,58.10
2019-03-01T00:20:35.717Z,56.50
2019-03-01T00:21:34.357Z,59.50
2019-03-01T00:22:34.371Z,58.00
2019-03-01T00:23:34.384Z,58.50
2019-03-01T00:24:34.401Z,54.90
2019-03-01T00:25:34.410Z,46.70
2019-03-01T00:26:34.425Z,55.00
2019-03-01T00:27:34.436Z,54.50
2019-03-01T00:28:34.448Z,49.00
2019-03-01T00:29:34.461Z,56.50
2019-03-01T00:30:34.476Z,48.80
2019-03-01T00:31:34.489Z,58.60
2019-03-01T00:32:34.500Z,48.60
2019-03-01T00:33:34.515Z,51.40
2019-03-01T00:34:34.525Z,54.20
2019-03-01T00:35:34.539Z,49.90
2019-03-01T00:36:34.565Z,48.70
2019-03-01T00:37:34.567Z,57.40
2019-03-01T00:38:34.579Z,49.60
2019-03-01T00:39:34.936Z,54.60
2019-03-01T00:40:34.605Z,53.30
2019-03-01T00:41:34.617Z,52.30
2019-03-01T00:42:34.631Z,56.50
2019-03-01T00:43:34.646Z,51.40
2019-03-01T00:44:34.657Z,52.70
2019-03-01T00:45:34.670Z,48.80
2019-03-01T00:46:34.685Z,50.20
2019-03-01T00:47:34.695Z,49.00
2019-03-01T00:48:34.708Z,48.60
2019-03-01T00:49:34.760Z,53.20
2019-03-01T00:50:34.780Z,54.10
2019-03-01T00:51:34.750Z,51.90
2019-03-01T00:52:34.763Z,52.40
2019-03-01T00:53:34.775Z,50.90
2019-03-01T00:54:34.788Z,51.80
2019-03-01T00:55:34.801Z,47.70
2019-03-01T00:56:34.819Z,49.60
2019-03-01T00:57:34.830Z,49.90
2019-03-01T00:58:34.844Z,49.40
2019-03-01T00:59:34.854Z,47.90
2019-03-01T01:00:34.867Z,54.60
2019-03-01T01:01:34.883Z,52.60
2019-03-01T01:02:34.895Z,51.60
2019-03-01T01:03:34.909Z,46.00
2019-03-01T01:04:34.927Z,51.20
2019-03-01T01:05:34.934Z,47.30
2019-03-01T01:06:34.949Z,46.00
2019-03-01T01:07:34.967Z,52.90
2019-03-01T01:08:34.976Z,46.10
2019-03-01T01:09:34.989Z,53.80
2019-03-01T01:10:35.003Z,45.60
2019-03-01T01:11:35.016Z,46.10
2019-03-01T01:12:35.028Z,42.70
2019-03-01T01:13:35.042Z,46.20
2019-03-01T01:14:35.055Z,45.30
2019-03-01T01:15:35.069Z,44.10
2019-03-01T01:16:35.083Z,43.40
2019-03-01T01:17:35.096Z,48.50
2019-03-01T01:18:35.109Z,43.80
2019-03-01T01:19:35.123Z,47.00
2019-03-01T01:20:35.137Z,44.30
2019-03-01T01:21:35.150Z,47.20
2019-03-01T01:22:35.165Z,44.30
2019-03-01T01:23:35.183Z,44.40
2019-03-01T01:24:35.271Z,44.80
2019-03-01T01:25:35.288Z,47.30
2019-03-01T01:26:35.271Z,43.20
2019-03-01T01:27:35.269Z,49.40
2019-03-01T01:28:35.291Z,43.40
2019-03-01T01:29:35.333Z,45.70
2019-03-01T01:30:35.346Z,40.70
2019-03-01T01:31:35.345Z,46.50
2019-03-01T01:32:35.336Z,46.30
2019-03-01T01:33:35.320Z,44.90
2019-03-01T01:34:35.329Z,42.50
2019-03-01T01:35:35.339Z,46.80
2019-03-01T01:36:35.352Z,45.60
2019-03-01T01:37:35.366Z,45.50
2019-03-01T01:38:35.380Z,49.00
2019-03-01T01:39:35.394Z,43.70
2019-03-01T01:40:35.406Z,45.60
2019-03-01T01:41:35.423Z,47.70
2019-03-01T01:42:35.436Z,46.30
2019-03-01T01:43:35.446Z,48.20
2019-03-01T01:44:35.459Z,45.10
2019-03-01T01:45:35.479Z,41.30
2019-03-01T01:46:35.497Z,41.00
2019-03-01T01:47:35.503Z,44.20
2019-03-01T01:48:35.515Z,44.40
2019-03-01T01:49:35.529Z,44.10
2019-03-01T01:50:35.553Z,42.80
2019-03-01T01:51:35.556Z,42.10
2019-03-01T01:52:35.571Z,47.70
2019-03-01T01:53:35.585Z,46.90
2019-03-01T01:54:35.599Z,43.00
2019-03-01T01:55:35.614Z,44.80
2019-03-01T01:56:35.625Z,45.50
2019-03-01T01:57:35.639Z,42.20
2019-03-01T01:58:35.655Z,43.80
2019-03-01T01:59:35.669Z,44.10
2019-03-01T02:00:35.703Z,44.10
2019-03-01T02:01:35.694Z,42.90
2019-03-01T02:02:35.709Z,45.50
2019-03-01T02:03:35.759Z,42.40
2019-03-01T02:04:35.735Z,46.20
2019-03-01T02:05:35.749Z,46.30
2019-03-01T02:06:35.765Z,44.90
2019-03-01T02:07:35.777Z,44.20
2019-03-01T02:08:35.792Z,45.90
2019-03-01T02:09:35.803Z,43.80
2019-03-01T02:10:35.819Z,46.30
2019-03-01T02:11:35.831Z,41.80
2019-03-01T02:12:35.847Z,48.00
2019-03-01T02:13:35.859Z,48.90
2019-03-01T02:14:35.874Z,46.00
2019-03-01T02:15:35.886Z,49.70
2019-03-01T02:16:35.900Z,45.00
2019-03-01T02:17:35.914Z,45.50
2019-03-01T02:18:35.928Z,45.40
2019-03-01T02:19:35.945Z,44.90
2019-03-01T02:20:35.959Z,48.60
2019-03-01T02:21:35.970Z,45.80
2019-03-01T02:22:35.990Z,50.70
2019-03-01T02:23:35.994Z,41.70
2019-03-01T02:24:36.010Z,44.80
2019-03-01T02:25:36.025Z,43.70
2019-03-01T02:26:36.043Z,44.80
2019-03-01T02:27:36.052Z,44.20
2019-03-01T02:28:36.065Z,44.80
2019-03-01T02:29:36.079Z,47.40
2019-03-01T02:30:36.096Z,44.00
2019-03-01T02:31:36.107Z,42.60
2019-03-01T02:32:36.127Z,46.80
2019-03-01T02:33:36.137Z,43.30
2019-03-01T02:34:36.150Z,42.50
2019-03-01T02:35:36.165Z,46.20
2019-03-01T02:36:36.181Z,47.30
2019-03-01T02:37:36.201Z,41.50
2019-03-01T02:38:36.206Z,44.50
2019-03-01T02:39:36.222Z,49.70
2019-03-01T02:40:36.232Z,43.30
2019-03-01T02:41:36.250Z,47.20
2019-03-01T02:42:36.263Z,42.00
2019-03-01T02:43:36.274Z,45.60
2019-03-01T02:44:36.288Z,39.90
2019-03-01T02:45:36.308Z,44.50
2019-03-01T02:46:36.321Z,44.70
2019-03-01T02:47:36.334Z,48.50
2019-03-01T02:48:36.345Z,43.60
2019-03-01T02:49:36.360Z,48.30
2019-03-01T02:50:36.393Z,46.80
2019-03-01T02:51:36.387Z,41.30
2019-03-01T02:52:36.410Z,43.20
2019-03-01T02:53:36.415Z,42.90
2019-03-01T02:54:36.430Z,48.60
2019-03-01T02:55:36.443Z,43.40
2019-03-01T02:56:36.465Z,41.10
2019-03-01T02:57:36.471Z,42.80
2019-03-01T02:58:36.487Z,42.90
2019-03-01T02:59:36.498Z,43.10
2019-03-01T03:00:36.512Z,39.90
2019-03-01T03:01:36.526Z,48.40
2019-03-01T03:02:36.545Z,44.20
2019-03-01T03:03:36.556Z,45.90
2019-03-01T03:04:36.571Z,45.60
2019-03-01T03:05:36.584Z,38.30
2019-03-01T03:06:36.597Z,48.30
2019-03-01T03:07:36.612Z,45.50
2019-03-01T03:08:36.631Z,43.20
2019-03-01T03:09:36.642Z,44.00
2019-03-01T03:10:36.656Z,43.10
2019-03-01T03:11:36.669Z,40.90
2019-03-01T03:12:36.683Z,44.90
2019-03-01T03:13:36.699Z,40.40
2019-03-01T03:14:36.715Z,47.30
2019-03-01T03:15:36.725Z,47.50
2019-03-01T03:16:36.742Z,41.30
2019-03-01T03:17:36.760Z,44.00
2019-03-01T03:18:36.771Z,44.00
2019-03-01T03:19:36.783Z,40.80
2019-03-01T03:20:36.806Z,44.60
2019-03-01T03:21:36.813Z,43.10
2019-03-01T03:22:36.826Z,42.00
2019-03-01T03:23:36.874Z,45.30
2019-03-01T03:24:36.854Z,43.30
2019-03-01T03:25:36.870Z,42.30
2019-03-01T03:26:36.883Z,37.40
2019-03-01T03:27:36.909Z,44.70
2019-03-01T03:28:36.910Z,40.60
2019-03-01T03:29:36.927Z,45.40
2019-03-01T03:30:36.941Z,44.00
2019-03-01T03:31:36.953Z,40.60
2019-03-01T03:32:36.977Z,39.20
2019-03-01T03:33:36.983Z,46.40
2019-03-01T03:34:36.996Z,44.70
2019-03-01T03:35:37.012Z,41.30
2019-03-01T03:36:37.113Z,49.00
2019-03-01T03:37:37.132Z,45.70
2019-03-01T03:38:37.110Z,49.50
2019-03-01T03:39:37.114Z,41.90
2019-03-01T03:40:37.107Z,43.10
2019-03-01T03:41:37.133Z,47.30
2019-03-01T03:42:37.169Z,45.00
2019-03-01T03:43:37.175Z,41.40
2019-03-01T03:44:37.185Z,44.90
2019-03-01T03:45:37.167Z,40.80
2019-03-01T03:46:37.186Z,43.30
2019-03-01T03:47:37.187Z,39.80
2019-03-01T03:48:37.203Z,47.80
2019-03-01T03:49:37.216Z,46.30
2019-03-01T03:50:37.229Z,40.60
2019-03-01T03:51:37.241Z,44.10
2019-03-01T03:52:37.257Z,44.60
2019-03-01T03:53:37.270Z,50.60
2019-03-01T03:54:37.284Z,45.90
2019-03-01T03:55:37.296Z,43.10
2019-03-01T03:56:37.309Z,47.50
2019-03-01T03:57:37.333Z,46.70
2019-03-01T03:58:37.340Z,45.10
2019-03-01T03:59:37.374Z,51.70
2019-03-01T04:00:37.370Z,43.60
2019-03-01T04:01:37.395Z,40.90
2019-03-01T04:02:37.399Z,47.90
2019-03-01T04:03:37.411Z,44.80
2019-03-01T04:04:37.428Z,43.30
2019-03-01T04:05:37.442Z,48.70
2019-03-01T04:06:37.456Z,47.00
2019-03-01T04:07:37.471Z,48.60
2019-03-01T04:08:37.484Z,48.10
2019-03-01T04:09:37.498Z,46.40
2019-03-01T04:10:37.513Z,44.40
2019-03-01T04:11:37.527Z,47.30
2019-03-01T04:12:37.543Z,43.90
2019-03-01T04:13:37.558Z,48.60
2019-03-01T04:14:37.571Z,44.70
2019-03-01T04:15:37.584Z,51.20
2019-03-01T04:16:37.621Z,45.00
2019-03-01T04:17:37.614Z,51.90
2019-03-01T04:18:37.629Z,45.40
2019-03-01T04:19:37.643Z,47.30
2019-03-01T04:20:37.659Z,45.70
2019-03-01T04:21:37.670Z,43.20
2019-03-01T04:22:37.684Z,50.60
2019-03-01T04:23:37.698Z,46.50
2019-03-01T04:24:37.715Z,49.70
2019-03-01T04:25:37.726Z,44.20
2019-03-01T04:26:37.743Z,47.30
2019-03-01T04:27:37.755Z,50.40
2019-03-01T04:28:37.773Z,48.20
2019-03-01T04:29:37.786Z,50.70
2019-03-01T04:30:37.804Z,50.50
2019-03-01T04:31:37.820Z,49.50
2019-03-01T04:32:37.829Z,47.10
2019-03-01T04:33:37.844Z,48.90
2019-03-01T04:34:37.869Z,48.70
2019-03-01T04:35:37.871Z,52.40
2019-03-01T04:36:37.890Z,52.80
2019-03-01T04:37:37.902Z,48.70
2019-03-01T04:38:37.916Z,51.30
2019-03-01T04:39:37.935Z,48.10
2019-03-01T04:40:37.944Z,49.60
2019-03-01T04:41:37.959Z,46.80
2019-03-01T04:42:37.973Z,54.00
2019-03-01T04:43:37.988Z,55.80
2019-03-01T04:44:38.003Z,51.30
2019-03-01T04:45:38.017Z,48.90
2019-03-01T04:46:38.031Z,45.90
2019-03-01T04:47:38.049Z,49.40
2019-03-01T04:48:38.059Z,45.80
2019-03-01T04:49:38.076Z,50.40
2019-03-01T04:50:38.089Z,48.80
2019-03-01T04:51:40.298Z,55.30
2019-03-01T04:52:38.117Z,44.90
2019-03-01T04:53:38.132Z,51.00
2019-03-01T04:54:38.148Z,50.40
2019-03-01T04:55:38.160Z,53.70
2019-03-01T04:56:38.177Z,48.90
2019-03-01T04:57:38.190Z,47.60
2019-03-01T04:58:38.205Z,48.10
2019-03-01T04:59:38.220Z,52.60
2019-03-01T05:00:38.234Z,51.20
2019-03-01T05:01:38.249Z,56.70
2019-03-01T05:02:38.263Z,54.30
2019-03-01T05:03:38.277Z,45.90
2019-03-01T05:04:38.290Z,55.20
2019-03-01T05:05:38.313Z,63.80
2019-03-01T05:06:38.319Z,65.60
2019-03-01T05:07:38.335Z,70.60
2019-03-01T05:08:38.350Z,60.80
2019-03-01T05:09:38.363Z,66.00
2019-03-01T05:10:38.379Z,72.10
2019-03-01T05:11:38.391Z,71.10
2019-03-01T05:12:38.424Z,77.60
2019-03-01T05:13:38.424Z,74.60
2019-03-01T05:14:38.434Z,73.00
2019-03-01T05:15:38.448Z,73.90
2019-03-01T05:16:38.462Z,72.80
2019-03-01T05:17:38.480Z,77.30
2019-03-01T05:18:38.492Z,77.10
2019-03-01T05:19:38.507Z,77.80
2019-03-01T05:20:38.522Z,83.50
2019-03-01T05:21:38.567Z,79.10
2019-03-01T05:22:38.549Z,74.10
2019-03-01T05:23:38.562Z,72.40
2019-03-01T05:24:38.576Z,78.50
2019-03-01T05:25:38.592Z,78.40
2019-03-01T05:26:38.606Z,76.10
2019-03-01T05:27:38.619Z,82.80
2019-03-01T05:28:38.634Z,93.60
2019-03-01T05:29:38.648Z,93.10
2019-03-01T05:30:38.665Z,97.30
2019-03-01T05:31:38.677Z,88.70
2019-03-01T05:32:38.692Z,93.50
2019-03-01T05:33:38.706Z,88.00
2019-03-01T05:34:38.720Z,92.30
2019-03-01T05:35:38.734Z,101.50
2019-03-01T05:36:38.750Z,96.80
2019-03-01T05:37:38.765Z,102.30
2019-03-01T05:38:38.778Z,99.90
2019-03-01T05:39:38.803Z,103.20
2019-03-01T05:40:38.807Z,93.50
2019-03-01T05:41:38.820Z,99.30
2019-03-01T05:42:38.834Z,99.90
2019-03-01T05:43:38.845Z,96.50
2019-03-01T05:44:38.874Z,95.50
2019-03-01T05:45:38.967Z,97.00
2019-03-01T05:46:38.950Z,94.20
2019-03-01T05:47:38.949Z,106.10
2019-03-01T05:48:38.941Z,91.60
2019-03-01T05:49:39.011Z,97.90
2019-03-01T05:50:39.006Z,97.20
2019-03-01T05:51:39.036Z,90.70
2019-03-01T05:52:39.001Z,87.50
2019-03-01T05:53:39.029Z,94.30
2019-03-01T05:54:39.009Z,97.40
2019-03-01T05:55:39.019Z,93.90
2019-03-01T05:56:39.041Z,95.80
2019-03-01T05:57:39.047Z,92.60
2019-03-01T05:58:39.068Z,93.10
2019-03-01T05:59:39.076Z,92.30
2019-03-01T06:00:39.090Z,93.60
2019-03-01T06:01:39.108Z,91.40
2019-03-01T06:02:39.121Z,85.50
2019-03-01T06:03:39.135Z,91.60
2019-03-01T06:04:39.148Z,89.70
2019-03-01T06:05:39.204Z,91.20
2019-03-01T06:06:39.176Z,88.00
2019-03-01T06:07:39.189Z,90.50
2019-03-01T06:08:39.207Z,89.50
2019-03-01T06:09:39.220Z,84.20
2019-03-01T06:10:39.237Z,92.60
2019-03-01T06:11:39.248Z,74.30
2019-03-01T06:12:39.261Z,94.30
2019-03-01T06:13:39.280Z,89.80
2019-03-01T06:14:39.299Z,82.40
2019-03-01T06:15:39.308Z,87.20
2019-03-01T06:16:40.180Z,89.50
2019-03-01T06:17:39.342Z,89.80
2019-03-01T06:18:39.357Z,88.90
2019-03-01T06:19:39.365Z,82.50
2019-03-01T06:20:39.379Z,76.30
2019-03-01T06:21:39.395Z,83.20
2019-03-01T06:22:39.412Z,85.80
2019-03-01T06:23:39.423Z,85.60
2019-03-01T06:24:39.441Z,73.60
2019-03-01T06:25:39.452Z,76.60
2019-03-01T06:26:39.467Z,84.50
2019-03-01T06:27:39.482Z,78.80
2019-03-01T06:28:39.498Z,82.50
2019-03-01T06:29:39.513Z,80.80
2019-03-01T06:30:39.525Z,77.80
2019-03-01T06:31:39.540Z,84.90
2019-03-01T06:32:39.554Z,85.40
2019-03-01T06:33:39.571Z,93.40
2019-03-01T06:34:39.584Z,82.60
2019-03-01T06:35:39.600Z,92.40
2019-03-01T06:36:39.614Z,92.50
2019-03-01T06:37:39.629Z,96.00
2019-03-01T06:38:39.642Z,89.80
2019-03-01T06:39:39.657Z,87.90
2019-03-01T06:40:39.675Z,95.70
2019-03-01T06:41:39.688Z,91.30
2019-03-01T06:42:39.700Z,92.60
2019-03-01T06:43:39.715Z,92.80
2019-03-01T06:44:39.733Z,89.00
2019-03-01T06:45:39.746Z,91.80
2019-03-01T06:46:39.760Z,89.50
2019-03-01T06:47:39.774Z,88.40
2019-03-01T06:48:39.790Z,83.80
2019-03-01T06:49:39.804Z,85.00
2019-03-01T06:50:39.832Z,84.30
2019-03-01T06:51:39.832Z,79.70
2019-03-01T06:52:39.850Z,92.00
2019-03-01T06:53:39.865Z,91.80
2019-03-01T06:54:39.878Z,89.40
2019-03-01T06:55:39.892Z,88.80
2019-03-01T06:56:39.907Z,89.10
2019-03-01T06:57:39.923Z,85.70
2019-03-01T06:58:39.943Z,86.70
2019-03-01T06:59:39.951Z,95.10
2019-03-01T07:00:49.483Z,88.60
2019-03-01T07:01:39.982Z,82.60
2019-03-01T07:02:39.997Z,92.10
2019-03-01T07:03:40.010Z,80.70
2019-03-01T07:04:40.025Z,82.40
2019-03-01T07:05:40.040Z,79.70
2019-03-01T07:06:40.056Z,84.30
2019-03-01T07:07:40.069Z,86.60
2019-03-01T07:08:40.083Z,82.80
2019-03-01T07:09:40.099Z,80.90
2019-03-01T07:10:40.115Z,85.80
2019-03-01T07:11:40.128Z,91.40
2019-03-01T07:12:40.146Z,80.80
2019-03-01T07:13:40.158Z,90.80
2019-03-01T07:14:40.171Z,86.00
2019-03-01T07:15:40.184Z,86.30
2019-03-01T07:16:40.202Z,89.50
2019-03-01T07:17:40.216Z,82.70
2019-03-01T07:18:40.232Z,83.70
2019-03-01T07:19:40.246Z,93.20
2019-03-01T07:20:40.263Z,91.90
2019-03-01T07:21:40.284Z,89.90
2019-03-01T07:22:40.289Z,92.00
2019-03-01T07:23:40.302Z,95.20
2019-03-01T07:24:40.315Z,91.60
2019-03-01T07:25:42.320Z,91.40
2019-03-01T07:26:40.346Z,90.80
2019-03-01T07:27:40.362Z,97.60
2019-03-01T07:28:40.377Z,99.80
2019-03-01T07:29:40.392Z,88.20
2019-03-01T07:30:40.408Z,103.40
2019-03-01T07:31:40.419Z,90.00
2019-03-01T07:32:40.436Z,92.60
2019-03-01T07:33:40.451Z,101.70
2019-03-01T07:34:40.464Z,109.50
2019-03-01T07:35:40.477Z,108.00
2019-03-01T07:36:40.493Z,102.00
2019-03-01T07:37:40.509Z,104.40
2019-03-01T07:38:40.524Z,105.00
2019-03-01T07:39:40.536Z,105.10
2019-03-01T07:40:40.554Z,109.80
2019-03-01T07:41:40.565Z,101.50
2019-03-01T07:42:40.583Z,104.50
2019-03-01T07:43:40.599Z,107.90
2019-03-01T07:44:40.611Z,105.40
2019-03-01T07:45:40.624Z,105.20
2019-03-01T07:46:40.640Z,108.00
2019-03-01T07:47:40.654Z,99.80
2019-03-01T07:48:40.675Z,98.30
2019-03-01T07:49:40.685Z,107.20
2019-03-01T07:50:40.696Z,100.90
2019-03-01T07:51:40.738Z,98.50
2019-03-01T07:52:40.796Z,106.50
2019-03-01T07:53:42.039Z,106.50
2019-03-01T07:54:40.794Z,100.90
2019-03-01T07:55:40.855Z,109.40
2019-03-01T07:56:40.876Z,103.20
2019-03-01T07:57:40.857Z,101.80
2019-03-01T07:58:40.861Z,104.90
2019-03-01T07:59:40.852Z,97.30
2019-03-01T08:00:40.868Z,100.20
2019-03-01T08:01:40.862Z,93.40
2019-03-01T08:02:40.875Z,103.20
2019-03-01T08:03:40.892Z,111.50
2019-03-01T08:04:40.907Z,105.80
2019-03-01T08:05:40.921Z,105.20
2019-03-01T08:06:40.934Z,103.50
2019-03-01T08:07:40.951Z,103.90
2019-03-01T08:08:40.975Z,94.50
2019-03-01T08:09:41.296Z,99.20
2019-03-01T08:10:40.996Z,105.80
2019-03-01T08:11:41.008Z,102.80
2019-03-01T08:12:42.381Z,96.60
2019-03-01T08:13:41.039Z,101.90
2019-03-01T08:14:41.056Z,99.50
2019-03-01T08:15:44.748Z,105.00
2019-03-01T08:16:41.084Z,98.80
2019-03-01T08:17:41.098Z,110.30
2019-03-01T08:18:44.328Z,106.30
2019-03-01T08:19:41.129Z,114.70
2019-03-01T08:20:41.144Z,123.00
2019-03-01T08:21:42.727Z,107.00
2019-03-01T08:22:48.729Z,100.60
2019-03-01T08:23:41.190Z,110.80
2019-03-01T08:24:42.821Z,109.00
2019-03-01T08:25:41.218Z,114.40
2019-03-01T08:26:41.235Z,116.30
2019-03-01T08:27:41.939Z,117.30
2019-03-01T08:28:41.265Z,127.90
2019-03-01T08:29:41.311Z,107.10
2019-03-01T08:30:42.478Z,108.60
2019-03-01T08:31:41.308Z,118.70
2019-03-01T08:32:41.323Z,108.60
2019-03-01T08:33:43.459Z,105.20
2019-03-01T08:34:41.354Z,106.70
2019-03-01T08:35:41.369Z,107.00
2019-03-01T08:36:42.388Z,119.30
2019-03-01T08:37:41.397Z,109.10
2019-03-01T08:38:41.416Z,107.40
2019-03-01T08:39:41.433Z,103.30
2019-03-01T08:40:41.446Z,123.50
2019-03-01T08:41:41.461Z,117.70
2019-03-01T08:42:41.476Z,100.00
2019-03-01T08:43:44.683Z,106.70
2019-03-01T08:44:41.506Z,112.60
2019-03-01T08:45:41.524Z,105.80
2019-03-01T08:46:42.073Z,106.50
2019-03-01T08:47:41.552Z,102.70
2019-03-01T08:48:41.581Z,101.90
2019-03-01T08:49:41.586Z,97.70
2019-03-01T08:50:41.603Z,103.70
2019-03-01T08:51:41.616Z,105.20
2019-03-01T08:52:41.631Z,98.40
2019-03-01T08:53:41.644Z,99.40
2019-03-01T08:54:41.662Z,111.90
2019-03-01T08:55:41.674Z,106.10
2019-03-01T08:56:41.692Z,105.30
2019-03-01T08:57:44.613Z,120.90
2019-03-01T08:58:42.519Z,108.00
2019-03-01T08:59:41.740Z,102.30
2019-03-01T09:00:41.758Z,103.90
2019-03-01T09:01:44.718Z,111.70
2019-03-01T09:02:41.787Z,114.70
2019-03-01T09:03:41.833Z,106.20
2019-03-01T09:04:50.468Z,108.70
2019-03-01T09:05:41.834Z,113.00
2019-03-01T09:06:41.934Z,107.50
2019-03-01T09:07:41.866Z,105.30
2019-03-01T09:08:42.999Z,98.70
2019-03-01T09:09:41.897Z,98.80
2019-03-01T09:10:41.914Z,101.60
2019-03-01T09:11:44.771Z,103.60
2019-03-01T09:12:41.947Z,107.00
2019-03-01T09:13:41.963Z,94.30
2019-03-01T09:14:41.975Z,114.10
2019-03-01T09:15:41.991Z,106.70
2019-03-01T09:16:42.007Z,105.80
2019-03-01T09:17:42.020Z,101.10
2019-03-01T09:18:42.041Z,115.60
2019-03-01T09:19:42.054Z,100.60
2019-03-01T09:20:42.070Z,116.10
2019-03-01T09:21:44.769Z,103.60
2019-03-01T09:22:42.101Z,115.40
2019-03-01T09:23:42.117Z,110.10
2019-03-01T09:24:42.134Z,112.60
2019-03-01T09:25:44.690Z,105.50
2019-03-01T09:26:42.165Z,115.90
2019-03-01T09:27:42.180Z,113.60
2019-03-01T09:28:42.196Z,113.60
2019-03-01T09:29:42.329Z,113.90
2019-03-01T09:30:43.477Z,102.80
2019-03-01T09:31:42.242Z,114.30
2019-03-01T09:32:42.261Z,108.50
2019-03-01T09:33:42.276Z,109.10
2019-03-01T09:34:42.292Z,103.70
2019-03-01T09:35:43.240Z,114.50
2019-03-01T09:36:42.321Z,111.70
2019-03-01T09:37:42.336Z,121.00
2019-03-01T09:38:42.894Z,116.70
2019-03-01T09:39:42.371Z,114.10
2019-03-01T09:40:42.385Z,104.40
2019-03-01T09:41:42.401Z,116.30
2019-03-01T09:42:42.418Z,116.00
2019-03-01T09:43:42.435Z,111.80
2019-03-01T09:44:42.447Z,111.20
2019-03-01T09:45:45.698Z,112.90
2019-03-01T09:46:42.480Z,111.00
2019-03-01T09:47:42.495Z,109.80
2019-03-01T09:48:45.492Z,115.60
2019-03-01T09:49:42.524Z,116.70
2019-03-01T09:50:42.541Z,121.80
2019-03-01T09:51:43.755Z,117.70
2019-03-01T09:52:42.611Z,111.80
2019-03-01T09:53:42.643Z,110.00
2019-03-01T09:54:42.650Z,119.80
2019-03-01T09:55:42.641Z,118.70
2019-03-01T09:56:42.710Z,114.30
2019-03-01T09:57:42.727Z,114.90
2019-03-01T09:58:42.726Z,107.00
2019-03-01T09:59:42.704Z,133.40
2019-03-01T10:00:42.700Z,124.60
2019-03-01T10:01:42.710Z,121.10
2019-03-01T10:02:42.727Z,114.00
2019-03-01T10:03:42.739Z,114.60
2019-03-01T10:04:42.755Z,115.30
2019-03-01T10:05:42.771Z,106.40
2019-03-01T10:06:42.786Z,105.30
2019-03-01T10:07:42.803Z,104.90
2019-03-01T10:08:42.816Z,111.10
2019-03-01T10:09:42.830Z,112.60
2019-03-01T10:10:42.851Z,116.20
2019-03-01T10:11:42.862Z,112.60
2019-03-01T10:12:42.879Z,106.70
2019-03-01T10:13:42.896Z,96.30
2019-03-01T10:14:42.908Z,110.40
2019-03-01T10:15:42.928Z,105.60
2019-03-01T10:16:42.940Z,98.20
2019-03-01T10:17:42.998Z,108.90
2019-03-01T10:18:42.974Z,102.60
2019-03-01T10:19:42.984Z,98.00
2019-03-01T10:20:43.006Z,104.30
2019-03-01T10:21:43.016Z,100.10
2019-03-01T10:22:43.034Z,105.90
2019-03-01T10:23:43.049Z,105.00
2019-03-01T10:24:43.066Z,95.10
2019-03-01T10:25:43.084Z,98.10
2019-03-01T10:26:43.095Z,97.50
2019-03-01T10:27:43.110Z,95.40
2019-03-01T10:28:43.132Z,89.80
2019-03-01T10:29:43.141Z,89.10
2019-03-01T10:30:43.158Z,86.80
2019-03-01T10:31:43.172Z,86.40
2019-03-01T10:32:43.190Z,85.70
2019-03-01T10:33:43.207Z,80.30
2019-03-01T10:34:43.223Z,90.20
2019-03-01T10:35:43.235Z,85.20
2019-03-01T10:36:43.252Z,88.80
2019-03-01T10:37:43.272Z,83.90
2019-03-01T10:38:44.085Z,79.90
2019-03-01T10:39:43.300Z,85.70
2019-03-01T10:40:43.315Z,91.20
2019-03-01T10:41:43.333Z,90.20
2019-03-01T10:42:43.351Z,95.10
2019-03-01T10:43:43.363Z,86.30
2019-03-01T10:44:43.429Z,84.50
2019-03-01T10:45:43.394Z,95.30
2019-03-01T10:46:43.410Z,88.00
2019-03-01T10:47:43.447Z,88.20
2019-03-01T10:48:43.445Z,82.10
2019-03-01T10:49:43.458Z,81.10
2019-03-01T10:50:43.473Z,81.90
2019-03-01T10:51:43.488Z,77.00
2019-03-01T10:52:43.512Z,88.90
2019-03-01T10:53:43.520Z,90.60
2019-03-01T10:54:43.537Z,88.20
2019-03-01T10:55:43.552Z,93.30
2019-03-01T10:56:43.571Z,96.70
2019-03-01T10:57:43.584Z,95.10
2019-03-01T10:58:43.699Z,91.80
2019-03-01T10:59:43.614Z,95.70
2019-03-01T11:00:43.630Z,99.50
2019-03-01T11:01:43.646Z,87.90
2019-03-01T11:02:43.662Z,95.20
2019-03-01T11:03:43.675Z,84.90
2019-03-01T11:04:43.693Z,84.60
2019-03-01T11:05:43.707Z,88.10
2019-03-01T11:06:43.722Z,82.50
2019-03-01T11:07:43.740Z,90.20
2019-03-01T11:08:43.758Z,85.20
2019-03-01T11:09:43.769Z,91.20
2019-03-01T11:10:43.788Z,90.60
2019-03-01T11:11:43.802Z,86.80
2019-03-01T11:12:43.819Z,87.00
2019-03-01T11:13:43.830Z,79.60
2019-03-01T11:14:43.857Z,82.90
2019-03-01T11:15:43.868Z,88.40
2019-03-01T11:16:43.880Z,82.60
2019-03-01T11:17:43.900Z,77.90
2019-03-01T11:18:43.909Z,71.40
2019-03-01T11:19:43.928Z,72.40
2019-03-01T11:20:43.941Z,80.20
2019-03-01T11:21:43.956Z,74.10
2019-03-01T11:22:43.969Z,71.50
2019-03-01T11:23:43.985Z,76.10
2019-03-01T11:24:43.999Z,72.50
2019-03-01T11:25:44.014Z,75.70
2019-03-01T11:26:44.033Z,70.80
2019-03-01T11:27:44.046Z,75.30
2019-03-01T11:28:44.066Z,71.20
2019-03-01T11:29:44.081Z,69.60
2019-03-01T11:30:44.100Z,79.50
2019-03-01T11:31:44.109Z,82.00
2019-03-01T11:32:44.126Z,78.20
2019-03-01T11:33:44.141Z,79.90
2019-03-01T11:34:44.156Z,78.80
2019-03-01T11:35:44.167Z,80.10
2019-03-01T11:36:44.185Z,80.50
2019-03-01T11:37:44.201Z,99.60
2019-03-01T11:38:44.216Z,89.20
2019-03-01T11:39:44.229Z,85.10
2019-03-01T11:40:44.250Z,89.00
2019-03-01T11:41:44.263Z,89.80
2019-03-01T11:42:44.280Z,81.70
2019-03-01T11:43:44.291Z,87.70
2019-03-01T11:44:44.308Z,92.20
2019-03-01T11:45:44.325Z,84.10
2019-03-01T11:46:44.338Z,95.90
2019-03-01T11:47:44.352Z,89.70
2019-03-01T11:48:44.368Z,89.50
2019-03-01T11:49:44.381Z,97.50
2019-03-01T11:50:44.404Z,96.00
2019-03-01T11:51:44.437Z,91.50
2019-03-01T11:52:44.501Z,93.10
2019-03-01T11:53:44.512Z,87.60
2019-03-01T11:54:44.495Z,93.70
2019-03-01T11:55:44.512Z,85.40
2019-03-01T11:56:44.556Z,88.40
2019-03-01T11:57:44.557Z,82.60
2019-03-01T11:58:44.560Z,88.60
2019-03-01T11:59:44.555Z,86.90
2019-03-01T12:00:51.995Z,88.20
2019-03-01T12:01:44.565Z,83.80
2019-03-01T12:02:44.596Z,90.50
2019-03-01T12:03:44.597Z,78.20
2019-03-01T12:04:44.612Z,77.90
2019-03-01T12:05:44.633Z,77.20
2019-03-01T12:06:44.645Z,70.50
2019-03-01T12:07:44.657Z,77.70
2019-03-01T12:08:44.674Z,85.80
2019-03-01T12:09:44.689Z,74.40
2019-03-01T12:10:44.704Z,80.70
2019-03-01T12:11:44.718Z,89.10
2019-03-01T12:12:44.734Z,86.30
2019-03-01T12:13:44.751Z,84.20
2019-03-01T12:14:44.766Z,91.00
2019-03-01T12:15:44.780Z,87.10
2019-03-01T12:16:44.794Z,74.80
2019-03-01T12:17:44.812Z,85.00
2019-03-01T12:18:44.826Z,77.30
2019-03-01T12:19:44.843Z,79.90
2019-03-01T12:20:44.857Z,79.90
2019-03-01T12:21:44.870Z,81.70
2019-03-01T12:22:44.888Z,82.20
2019-03-01T12:23:44.903Z,82.70
2019-03-01T12:24:44.919Z,94.40
2019-03-01T12:25:44.937Z,89.30
2019-03-01T12:26:44.947Z,89.20
2019-03-01T12:27:44.960Z,86.30
2019-03-01T12:28:44.979Z,86.60
2019-03-01T12:29:44.991Z,82.20
2019-03-01T12:30:45.008Z,79.50
2019-03-01T12:31:45.026Z,91.30
2019-03-01T12:32:45.057Z,78.20
2019-03-01T12:33:45.052Z,86.80
2019-03-01T12:34:45.070Z,77.60
2019-03-01T12:35:45.086Z,78.50
2019-03-01T12:36:45.136Z,83.80
2019-03-01T12:37:45.112Z,83.10
2019-03-01T12:38:45.129Z,81.60
2019-03-01T12:39:45.143Z,75.30
2019-03-01T12:40:45.160Z,84.60
2019-03-01T12:41:45.170Z,85.80
2019-03-01T12:42:45.187Z,81.20
2019-03-01T12:43:45.201Z,75.50
2019-03-01T12:44:45.217Z,70.40
2019-03-01T12:45:45.230Z,83.30
2019-03-01T12:46:45.245Z,76.50
2019-03-01T12:47:45.274Z,69.50